Aérodrome de Condom - Valence-sur-Baïse

LFID · Gers, Occitanie, França

História da METAR LFID · Condom Valence Sur Baise Airport

Abaixo você vê METARs dos últimos dias. Selecione um ano para navegar pelos METARs mais antigos, a partir do ano 2007.

5 de dezembro de 2022

Hora Código Clima Temp. Visibilidade Tecto Vento METAR/SPECI
05:00
L
2 °C 500 m - 110° 110° 7 kt METAR LFBA 050400Z AUTO 11007KT 0550 0500 R29/0600U FG VV/// 02/02 Q1017
04:30
L
2 °C 400 m - 120° 120° 5 kt METAR LFBA 050330Z AUTO 12005KT 100V160 0450 0400 R29/0550U FG VV/// 02/02 Q1017
04:00
L
2 °C 450 m - 110° 110° 7 kt METAR LFBA 050300Z AUTO 11007KT 0500 0450 R29/0550N FG VV/// 02/02 Q1016
03:30
L
2 °C 400 m - 110° 110° 6 kt METAR LFBA 050230Z AUTO 11006KT 0450 0400 R29/0500N FG VV/// 02/02 Q1016
03:00
L
1 °C 450 m - 120° 120° 6 kt METAR LFBA 050200Z AUTO 12006KT 0500 0450 R29/0550N FG VV/// 01/01 Q1016
02:30
L
1 °C 550 m - 120° 120° 6 kt METAR LFBA 050130Z AUTO 12006KT 0600 0550 R29/0650N FG VV/// 01/01 Q1016
02:00
L
1 °C 1,1 km - 130° 130° 6 kt METAR LFBA 050100Z AUTO 13006KT 2200 1100 R29/1500D BR VV/// 01/01 Q1016
01:30
L
1 °C 1,1 km - 110° 110° 6 kt METAR LFBA 050030Z AUTO 11006KT 1100 R29/1400U BR VV/// 01/01 Q1016
01:00
L
0 °C 600 m - 100° 100° 6 kt METAR LFBA 050000Z AUTO 10006KT 0650 0600 R29/0900U FG VV/// 00/00 Q1016
00:30
L
0 °C 500 m - 120° 120° 5 kt METAR LFBA 042330Z AUTO 12005KT 0550 0500 R29/0500D FG VV/// 00/00 Q1015
00:00
L
0 °C 600 m - 120° 120° 4 kt METAR LFBA 042300Z AUTO 12004KT 0650 0600 R29/0600D FG VV/// 00/00 Q1015

4 de dezembro de 2022

Hora Código Clima Temp. Visibilidade Tecto Vento METAR/SPECI
23:30
L
1 °C 350 m - 130° 130° 3 kt METAR LFBA 042230Z AUTO 13003KT 0400 0350 R29/0400N FG VV/// 01/01 Q1015
23:00
L
1 °C 900 m - Var Var 2 kt METAR LFBA 042200Z AUTO VRB02KT 0900 R29/1000D FG VV/// 01/01 Q1015
22:30
I
1 °C 4,1 km - 110° 110° 4 kt METAR LFBA 042130Z AUTO 11004KT 4100 BR NSC 01/01 Q1015
22:00
M
1 °C 7 km - 100° 100° 4 kt METAR LFBA 042100Z AUTO 10004KT 070V140 7000 NSC 01/01 Q1015 TEMPO 0600 FG VV///
21:30
M
1 °C 6 km - 120° 120° 4 kt METAR LFBA 042030Z AUTO 12004KT 6000 NSC 01/00 Q1014 TEMPO 0600 FG VV///
21:00
M
2 °C 5 km - 140° 140° 3 kt METAR LFBA 042000Z AUTO 14003KT 100V170 5000 BR NSC 02/02 Q1014 NOSIG
20:30
V
2 °C 8 km - 100° 100° 4 kt METAR LFBA 041930Z AUTO 10004KT 8000 NSC 02/02 Q1014 TEMPO 4000 BR
20:00
V
2 °C 10 km+ - 100° 100° 4 kt METAR LFBA 041900Z AUTO 10004KT CAVOK 02/02 Q1013 TEMPO 4000 BR
19:30
V
2 °C 9 km - 110° 110° 3 kt METAR LFBA 041830Z AUTO 11003KT 080V140 9000 NSC 02/02 Q1013 TEMPO 4000 BR
19:00
M
3 °C 6 km - 130° 130° 3 kt METAR LFBA 041800Z AUTO 13003KT 6000 NSC 03/02 Q1013 TEMPO 4000 BR
18:30
M
3 °C 7 km - 090° 090° 3 kt METAR LFBA 041730Z AUTO 09003KT 7000 NSC 03/02 Q1012 TEMPO 4000 BR
18:00
V
4 °C 10 km+ - 150° 150° 3 kt METAR LFBA 041700Z AUTO 15003KT CAVOK 04/02 Q1012 NOSIG
17:30
V
6 °C 10 km+ - 160° 160° 3 kt METAR LFBA 041630Z AUTO 16003KT 9999 FEW035 06/04 Q1012 NOSIG
17:00
V
7 °C 10 km+ - Var Var 2 kt METAR LFBA 041600Z AUTO VRB02KT 9999 FEW037 07/05 Q1012 NOSIG
16:30
V
8 °C 10 km+ - 120° 120° 3 kt METAR LFBA 041530Z AUTO 12003KT CAVOK 08/05 Q1011 NOSIG
16:00
V
8 °C 10 km+ - 070° 070° 3 kt METAR LFBA 041500Z AUTO 07003KT CAVOK 08/05 Q1011 NOSIG
15:30
V
9 °C 10 km+ - 110° 110° 4 kt METAR LFBA 041430Z AUTO 11004KT CAVOK 09/05 Q1011 TEMPO 3000 BR
15:00
V
8 °C 10 km+ - 110° 110° 4 kt METAR LFBA 041400Z AUTO 11004KT 080V140 CAVOK 08/06 Q1011 BECMG 3000 BR
14:30
V
7 °C 10 km+ - 100° 100° 5 kt METAR LFBA 041330Z AUTO 10005KT 9999 FEW013 07/06 Q1011 BECMG 3000 BR
14:00
V
7 °C 10 km+ - 080° 080° 4 kt METAR LFBA 041300Z AUTO 08004KT 050V130 CAVOK 07/06 Q1011 BECMG 3000 BR
13:30
L
6 °C 7 km 200 ft 090° 090° 5 kt METAR LFBA 041230Z AUTO 09005KT 060V130 7000 BKN002 06/06 Q1011 BECMG 3000 BR SCT016
13:00
L
5 °C 1,9 km - 090° 090° 5 kt METAR LFBA 041200Z AUTO 09005KT 1900 BR VV/// 05/05 Q1011 BECMG 3000 BR SCT016
12:30
L
5 °C 800 m - 100° 100° 4 kt METAR LFBA 041130Z AUTO 10004KT 070V130 0900 0800 R29/1100U FG VV/// 05/05 Q1011 BECMG 9999 FG SCT030
12:00
L
5 °C 750 m - 080° 080° 4 kt METAR LFBA 041100Z AUTO 08004KT 050V120 0750 R29/1000U FG VV/// 05/05 Q1011 BECMG 9999 FG SCT030
11:30
L
5 °C 550 m - Var Var 3 kt METAR LFBA 041030Z AUTO VRB03KT 0600 0550 R29/0800U FG VV/// 05/05 Q1011 BECMG 9999 FG SCT030
11:00
L
4 °C 350 m - Var Var 2 kt METAR LFBA 041000Z AUTO VRB02KT 0400 0350 R29/0600U FG VV/// 04/04 Q1011 BECMG 9999 FG SCT030
10:30
L
4 °C 250 m - Var Var 2 kt METAR LFBA 040930Z AUTO VRB02KT 0250 R29/0300N FG VV/// 04/04 Q1011 BECMG 9999 FG SCT030
10:00
L
3 °C 250 m - Var Var 2 kt METAR LFBA 040900Z AUTO VRB02KT 0300 0250 R29/0325N FG VV/// 03/03 Q1010 BECMG 9999 FG SCT030
09:30
L
3 °C 200 m - Var Var 1 kt METAR LFBA 040830Z AUTO VRB01KT 0200 R29/0300N FG VV/// 03/03 Q1010 BECMG 9999 BR BKN017
09:00
L
3 °C 300 m - Var Var 1 kt METAR LFBA 040800Z AUTO VRB01KT 0300 R29/0325N FG VV/// 03/03 Q1010 BECMG 9999 BR BKN017
08:30
L
2 °C 750 m - 120° 120° 3 kt METAR LFBA 040730Z AUTO 12003KT 2400 0750 R29/1200D BCFG VV/// 02/02 Q1010 BECMG 9999 BR BKN017
08:00
L
1 °C 650 m 200 ft 150° 150° 1 kt METAR LFBA 040700Z AUTO 15001KT 0700 0650 R29/0800U FG BKN002 01/01 Q1009 TEMPO VV/// BECMG 4000 BR
07:30
L
1 °C 500 m - Var 000° 0 kt METAR LFBA 040630Z AUTO 00000KT 0500 R29/0650N FG VV/// 01/01 Q1009 BECMG 4000 BR BKN035
07:00
L
2 °C 350 m - 130° 130° 1 kt METAR LFBA 040600Z AUTO 13001KT 0350 R29/0800U FG VV/// 02/02 Q1009
06:30
L
4 °C 550 m 3.400 ft Var 000° 0 kt METAR LFBA 040530Z AUTO 00000KT 0900 0550 R29/1400U FG BKN034 04/03 Q1009
06:00
I
4 °C 4,5 km 3.400 ft 230° 230° 2 kt METAR LFBA 040500Z AUTO 23002KT 4500 BR BKN034 BKN054 BKN090 04/04 Q1009
05:30
I
5 °C 4,1 km 6.200 ft 230° 230° 2 kt METAR LFBA 040430Z AUTO 23002KT 4100 BR FEW039 BKN062 BKN084 05/04 Q1008
05:00
I
5 °C 3,7 km - 310° 310° 2 kt METAR LFBA 040400Z AUTO 31002KT 3700 BR FEW004 SCT100 05/04 Q1008
04:30
M
5 °C 5 km 3.500 ft Var Var 2 kt METAR LFBA 040330Z AUTO VRB02KT 5000 -RA BR FEW004 OVC035 05/05 Q1008
04:00
M
5 °C 6 km 3.700 ft Var Var 1 kt METAR LFBA 040300Z AUTO VRB01KT 6000 BKN037 OVC047 05/05 Q1008
03:30
M
5 °C 5 km 3.500 ft 330° 330° 2 kt METAR LFBA 040230Z AUTO 33002KT 5000 -RA BR BKN035 OVC048 05/05 Q1008
03:00
M
5 °C 6 km 3.400 ft 310° 310° 2 kt METAR LFBA 040200Z AUTO 31002KT 6000 OVC034 05/05 Q1008
02:30
M
5 °C 6 km 4.400 ft Var Var 3 kt METAR LFBA 040130Z AUTO VRB03KT 6000 SCT036 OVC044 05/05 Q1008
02:00
M
5 °C 7 km 3.500 ft 310° 310° 3 kt METAR LFBA 040100Z AUTO 31003KT 7000 BKN035 OVC042 05/05 Q1008
01:30
M
5 °C 7 km 4.100 ft 170° 170° 3 kt METAR LFBA 040030Z AUTO 17003KT 7000 BKN041/// OVC047/// ///TCU 05/05 Q1008
01:00
M
5 °C 6 km 4.000 ft 110° 110° 2 kt METAR LFBA 040000Z AUTO 11002KT 6000 OVC040/// //////TCU 05/04 Q1008
00:30
M
5 °C 6 km 7.800 ft 120° 120° 2 kt METAR LFBA 032330Z AUTO 12002KT 6000 FEW038/// SCT044/// OVC078/// //////TCU 05/04 Q1008
00:00
M
5 °C 6 km 5.400 ft Var 000° 0 kt METAR LFBA 032300Z AUTO 00000KT 6000 -RA SCT046/// BKN054/// OVC082/// ///TCU 05/04 Q1008

3 de dezembro de 2022

Hora Código Clima Temp. Visibilidade Tecto Vento METAR/SPECI
23:30
V
6 °C 8 km 4.800 ft 040° 040° 2 kt METAR LFBA 032230Z AUTO 04002KT 8000 -RA FEW030/// OVC048/// //////TCU 06/05 Q1008
23:00
V
6 °C 10 km+ 4.000 ft 290° 290° 1 kt METAR LFBA 032200Z AUTO 29001KT 9999 -RA FEW032/// BKN040/// OVC052/// ///TCU 06/04 Q1009
22:30
V
6 °C 10 km+ 5.400 ft Var Var 2 kt METAR LFBA 032130Z AUTO VRB02KT 9999 SCT040/// BKN054/// OVC064/// //////TCU 06/04 Q1009
22:00
V
6 °C 10 km+ - 240° 240° 2 kt METAR LFBA 032100Z AUTO 24002KT 9999 ///TCU 06/04 Q1008 BECMG 3000 BR NSC
21:30
V
6 °C 10 km+ - 280° 280° 2 kt METAR LFBA 032030Z AUTO 28002KT CAVOK 06/04 Q1008 BECMG 3000 BR
21:00
V
6 °C 10 km+ - 270° 270° 2 kt METAR LFBA 032000Z AUTO 27002KT CAVOK 06/04 Q1008 NOSIG
20:30
V
6 °C 10 km+ - 270° 270° 3 kt METAR LFBA 031930Z AUTO 27003KT CAVOK 06/04 Q1008 NOSIG
20:00
V
6 °C 10 km+ - 230° 230° 3 kt METAR LFBA 031900Z AUTO 23003KT CAVOK 06/04 Q1008 NOSIG
19:30
V
6 °C 10 km+ - 250° 250° 3 kt METAR LFBA 031830Z AUTO 25003KT CAVOK 06/04 Q1008 NOSIG
19:00
V
6 °C 10 km+ - 270° 270° 2 kt METAR LFBA 031800Z AUTO 27002KT CAVOK 06/04 Q1008 NOSIG
18:30
V
6 °C 10 km+ - Var Var 1 kt METAR LFBA 031730Z AUTO VRB01KT CAVOK 06/04 Q1008 NOSIG
18:00
V
6 °C 10 km+ - Var Var 1 kt METAR LFBA 031700Z AUTO VRB01KT CAVOK 06/04 Q1008 NOSIG
17:30
V
7 °C 10 km+ - Var Var 3 kt METAR LFBA 031630Z AUTO VRB03KT CAVOK 07/04 Q1008 NOSIG
17:00
V
7 °C 10 km+ - 280° 280° 3 kt METAR LFBA 031600Z AUTO 28003KT CAVOK 07/04 Q1008 NOSIG
16:30
V
8 °C 10 km+ - Var 000° 0 kt METAR LFBA 031530Z AUTO 00000KT CAVOK 08/04 Q1008 NOSIG
16:00
V
8 °C 10 km+ - Var Var 2 kt METAR LFBA 031500Z AUTO VRB02KT CAVOK 08/04 Q1007 NOSIG
15:30
V
8 °C 10 km+ - 320° 320° 3 kt METAR LFBA 031430Z AUTO 32003KT 290V010 CAVOK 08/04 Q1008 NOSIG
15:00
V
8 °C 10 km+ - Var Var 2 kt METAR LFBA 031400Z AUTO VRB02KT CAVOK 08/04 Q1008 NOSIG
14:30
V
8 °C 10 km+ - Var 000° 0 kt METAR LFBA 031330Z AUTO 00000KT CAVOK 08/04 Q1008 NOSIG
14:00
V
7 °C 10 km+ - Var Var 2 kt METAR LFBA 031300Z AUTO VRB02KT CAVOK 07/04 Q1008 NOSIG
13:30
V
6 °C 10 km+ - 100° 100° 4 kt METAR LFBA 031230Z AUTO 10004KT CAVOK 06/04 Q1008 NOSIG
13:00
V
6 °C 10 km+ - 120° 120° 5 kt METAR LFBA 031200Z AUTO 12005KT CAVOK 06/04 Q1009 NOSIG
12:30
V
6 °C 10 km+ 9.400 ft 120° 120° 6 kt METAR LFBA 031130Z AUTO 12006KT 9999 FEW009 OVC094 06/04 Q1009 TEMPO BKN013
12:00
I
6 °C 9 km 900 ft 110° 110° 5 kt METAR LFBA 031100Z AUTO 11005KT 080V140 9000 BKN009 OVC094 06/05 Q1009 TEMPO BKN013
11:30
V
6 °C 9 km 5.400 ft 090° 090° 6 kt METAR LFBA 031030Z AUTO 09006KT 9000 SCT009 BKN054 BKN096 06/05 Q1009 TEMPO BKN013
11:00
V
6 °C 8 km 5.400 ft 100° 100° 5 kt METAR LFBA 031000Z AUTO 10005KT 8000 SCT008 BKN054 BKN090 06/05 Q1010 TEMPO 3000 BR BECMG BKN013
10:30
I
6 °C 8 km 900 ft 110° 110° 4 kt METAR LFBA 030930Z AUTO 11004KT 8000 BKN009 OVC090 06/05 Q1010 TEMPO 3000 BR BECMG BKN013
10:00
I
6 °C 9 km 800 ft Var Var 2 kt METAR LFBA 030900Z AUTO VRB02KT 9000 OVC008 06/05 Q1010 TEMPO 3000 BR OVC004
09:30
I
5 °C 9 km 900 ft 060° 060° 3 kt METAR LFBA 030830Z AUTO 06003KT 9000 BKN009 BKN058 OVC082 05/05 Q1009 TEMPO 4000 BR OVC004
09:00
M
5 °C 9 km 1.000 ft 070° 070° 3 kt METAR LFBA 030800Z AUTO 07003KT 9000 OVC010 05/05 Q1009 TEMPO 4000 BR OVC004
08:30
I
5 °C 8 km 900 ft Var Var 2 kt METAR LFBA 030730Z AUTO VRB02KT 8000 BKN009 BKN045 BKN058 05/04 Q1009 TEMPO 4000 BR OVC004
08:00
I
5 °C 9 km 600 ft 290° 290° 2 kt METAR LFBA 030700Z AUTO 29002KT 9000 BKN006 OVC010 05/05 Q1010 TEMPO 1200 BCFG OVC002
07:30
I
5 °C 8 km 700 ft 300° 300° 3 kt METAR LFBA 030630Z AUTO 30003KT 8000 OVC007 05/05 Q1010 TEMPO 1200 BCFG OVC002
07:00
I
5 °C 5 km 700 ft Var Var 2 kt METAR LFBA 030600Z AUTO VRB02KT 5000 BR OVC007 05/05 Q1010 TEMPO 1200 BCFG OVC002
06:30
I
5 °C 5 km 600 ft 060° 060° 3 kt METAR LFBA 030530Z AUTO 06003KT 5000 BR OVC006 05/05 Q1010
06:00
I
5 °C 5 km 500 ft 360° 360° 2 kt METAR LFBA 030500Z AUTO 36002KT 5000 BR OVC005 05/05 Q1010
05:30
L
5 °C 5 km 400 ft Var Var 1 kt METAR LFBA 030430Z AUTO VRB01KT 5000 BR OVC004 05/05 Q1010
05:00
L
5 °C 4,6 km 300 ft Var Var 3 kt METAR LFBA 030400Z AUTO VRB03KT 4600 BR OVC003 05/05 Q1010
04:30
L
5 °C 4,3 km 300 ft 110° 110° 3 kt METAR LFBA 030330Z AUTO 11003KT 4300 BR BKN003 BKN008 OVC049 05/05 Q1010
04:00
I
5 °C 5 km 600 ft Var Var 2 kt METAR LFBA 030300Z AUTO VRB02KT 5000 BR BKN006 OVC049 05/05 Q1011
03:30
L
5 °C 4,5 km 400 ft 070° 070° 2 kt METAR LFBA 030230Z AUTO 07002KT 4500 BR BKN004 OVC046 05/05 Q1011
03:00
L
5 °C 4,8 km 300 ft 260° 260° 1 kt METAR LFBA 030200Z AUTO 26001KT 4800 BR BKN003 OVC047 05/05 Q1011
02:30
M
5 °C 5 km 4.700 ft 250° 250° 2 kt METAR LFBA 030130Z AUTO 25002KT 5000 BR FEW003 OVC047 05/05 Q1011
02:00
M
5 °C 5 km 4.700 ft 260° 260° 2 kt METAR LFBA 030100Z AUTO 26002KT 5000 BR SCT003 SCT007 OVC047 05/05 Q1011
01:30
M
5 °C 5 km 2.100 ft 260° 260° 1 kt METAR LFBA 030030Z AUTO 26001KT 5000 BR BKN021 OVC047 05/04 Q1012
01:00
M
5 °C 5 km 4.700 ft 290° 290° 2 kt METAR LFBA 030000Z AUTO 29002KT 5000 BR FEW021 OVC047 05/04 Q1012
00:30
M
5 °C 6 km 4.800 ft Var Var 1 kt METAR LFBA 022330Z AUTO VRB01KT 6000 FEW021 OVC048 05/04 Q1012
00:00
M
5 °C 5 km 4.800 ft 060° 060° 2 kt METAR LFBA 022300Z AUTO 06002KT 5000 BR FEW020 OVC048 05/04 Q1013

2 de dezembro de 2022

Hora Código Clima Temp. Visibilidade Tecto Vento METAR/SPECI
23:30
M
5 °C 6 km 2.000 ft Var Var 2 kt METAR LFBA 022230Z AUTO VRB02KT 6000 BKN020 OVC049 05/04 Q1013
23:00
M
4 °C 5 km 2.000 ft 150° 150° 1 kt METAR LFBA 022200Z AUTO 15001KT 5000 BR BKN020 OVC050 04/04 Q1013
22:30
M
5 °C 6 km 18.000 ft 230° 230° 2 kt METAR LFBA 022130Z AUTO 23002KT 6000 FEW021 SCT050 BKN180 05/04 Q1013
22:00
M
5 °C 6 km 12.000 ft 200° 200° 2 kt METAR LFBA 022100Z AUTO 20002KT 6000 FEW049 BKN120 BKN140 05/04 Q1013 NOSIG
21:30
M
5 °C 6 km - 270° 270° 1 kt METAR LFBA 022030Z AUTO 27001KT 6000 NSC 05/04 Q1014 NOSIG
21:00
M
5 °C 7 km 12.000 ft 180° 180° 2 kt METAR LFBA 022000Z AUTO 18002KT 7000 SCT048 OVC120 05/04 Q1014 NOSIG
20:30
M
6 °C 7 km 4.700 ft 260° 260° 2 kt METAR LFBA 021930Z AUTO 26002KT 7000 OVC047 06/05 Q1014 NOSIG
20:00
V
6 °C 8 km 4.800 ft Var 000° 0 kt METAR LFBA 021900Z AUTO 00000KT 8000 OVC048 06/05 Q1014 NOSIG
19:30
V
6 °C 9 km 4.600 ft Var 000° 0 kt METAR LFBA 021830Z AUTO 00000KT 9000 OVC046 06/05 Q1015 NOSIG
19:00
V
6 °C 9 km 4.700 ft 340° 340° 3 kt METAR LFBA 021800Z AUTO 34003KT 9000 OVC047 06/05 Q1015 NOSIG
18:30
V
6 °C 10 km+ 4.600 ft Var Var 2 kt METAR LFBA 021730Z AUTO VRB02KT 9999 OVC046 06/04 Q1015 NOSIG
18:00
V
6 °C 10 km+ 4.700 ft 190° 190° 2 kt METAR LFBA 021700Z AUTO 19002KT 9999 OVC047 06/05 Q1015 NOSIG
17:30
V
6 °C 10 km+ 4.800 ft Var 000° 0 kt METAR LFBA 021630Z AUTO 00000KT 9999 OVC048 06/04 Q1015 NOSIG
17:00
V
7 °C 10 km+ 4.800 ft 110° 110° 2 kt METAR LFBA 021600Z AUTO 11002KT 9999 FEW019 OVC048 07/05 Q1015 NOSIG
16:30
V
7 °C 10 km+ 4.900 ft Var Var 2 kt METAR LFBA 021530Z AUTO VRB02KT 9999 FEW012 OVC049 07/05 Q1015 NOSIG
16:00
M
7 °C 10 km+ 2.700 ft Var Var 2 kt METAR LFBA 021500Z AUTO VRB02KT 9999 FEW013 SCT018 BKN027 07/05 Q1015 TEMPO BKN012
15:30
M
7 °C 10 km+ 1.200 ft Var Var 2 kt METAR LFBA 021430Z AUTO VRB02KT 9999 BKN012 OVC017 07/05 Q1016 BECMG BKN018
15:00
M
7 °C 10 km+ 1.500 ft Var Var 2 kt METAR LFBA 021400Z AUTO VRB02KT 9999 OVC015 07/04 Q1016 NOSIG
14:30
M
7 °C 10 km+ 1.200 ft Var Var 2 kt METAR LFBA 021330Z AUTO VRB02KT 9999 OVC012 07/05 Q1016 BECMG BKN018
14:00
M
7 °C 10 km+ 1.100 ft Var Var 1 kt METAR LFBA 021300Z AUTO VRB01KT 9999 OVC011 07/05 Q1016 BECMG BKN018
13:30
I
7 °C 10 km+ 900 ft Var Var 3 kt METAR LFBA 021230Z AUTO VRB03KT 9999 OVC009 07/05 Q1016 BECMG BKN018
13:00
I
6 °C 10 km+ 900 ft Var Var 2 kt METAR LFBA 021200Z AUTO VRB02KT 9999 OVC009 06/05 Q1016 BECMG OVC012
12:30
M
6 °C 10 km+ 1.100 ft Var Var 3 kt METAR LFBA 021130Z AUTO VRB03KT 9999 OVC011 06/05 Q1017 NOSIG
12:00
I
6 °C 9 km 800 ft Var Var 3 kt METAR LFBA 021100Z AUTO VRB03KT 9000 OVC008 06/05 Q1017 TEMPO 3000 BR BECMG BKN013
11:30
I
6 °C 5 km 500 ft Var 000° 0 kt METAR LFBA 021030Z AUTO 00000KT 5000 BR BKN005 OVC009 06/05 Q1018 BECMG BKN013
11:00
L
6 °C 4,5 km 400 ft Var 000° 0 kt METAR LFBA 021000Z AUTO 00000KT 4500 BR OVC004 06/05 Q1018 NOSIG

Nós e terceiros acompanhamos seu comportamento na internet em nosso site com cookies. Se você continuar, nós assumimos que você concorda com nosso política de cookies.